Time;durP1;ratioP1;P1;durP2;ratioP2;P2;SDS_P1;SDS_P2;PMS_P1;PMS_P2;Temp;Humidity;BMP_temperature;BMP_pressure;BME280_temperature;BME280_humidity;BME280_pressure;Samples;Min_cycle;Max_cycle;Signal;HPM_P1;HPM_P2
2021/09/20 02:18:25;;;;;;;14.57;12.63;;;;;;;19.43;88.96;100666.31;6337766;22;20022;-70
2021/09/20 02:21:13;;;;;;;17.27;11.68;;;;;;;19.79;86.81;100674.91;6339915;22;20098;-71
2021/09/20 02:23:59;;;;;;;15.80;13.30;;;;;;;19.88;83.78;100682.38;6319097;22;20006;-70
2021/09/20 02:26:45;;;;;;;21.00;15.48;;;;;;;19.77;83.51;100669.69;6340604;22;20017;-71
2021/09/20 02:29:30;;;;;;;24.13;18.15;;;;;;;19.66;83.78;100674.75;6317578;22;20002;-71
2021/09/20 02:32:16;;;;;;;29.45;17.58;;;;;;;19.76;83.41;100677.78;6316319;22;20006;-70
2021/09/20 02:35:03;;;;;;;25.90;18.83;;;;;;;19.67;82.95;100695.06;6340430;22;20060;-70
2021/09/20 03:26:58;;;;;;;28.23;21.05;;;;;;;18.63;92.46;100689.16;6268253;22;20015;-72
2021/09/20 03:29:44;;;;;;;30.10;20.98;;;;;;;18.49;94.39;100676.56;6287547;22;20049;-71
2021/09/20 03:32:30;;;;;;;29.52;20.48;;;;;;;18.92;91.23;100678.75;6305375;22;20017;-71
2021/09/20 03:35:18;;;;;;;28.02;21.42;;;;;;;18.71;92.71;100671.03;6307989;22;20011;-71
2021/09/20 03:38:04;;;;;;;32.75;21.10;;;;;;;18.56;96.13;100669.16;6307311;22;20011;-71
2021/09/20 03:40:50;;;;;;;29.45;21.65;;;;;;;18.44;98.90;100660.03;6308952;22;20092;-71
2021/09/20 03:43:36;;;;;;;28.45;21.90;;;;;;;18.46;100.00;100662.63;6285952;22;20019;-71
2021/09/20 03:46:22;;;;;;;31.50;20.77;;;;;;;18.78;98.20;100657.34;6287509;22;20007;-71
2021/09/20 03:49:08;;;;;;;29.30;21.55;;;;;;;18.38;100.00;100675.41;6285476;22;20007;-71
2021/09/20 03:51:54;;;;;;;30.42;20.65;;;;;;;18.07;100.00;100683.09;6285479;22;20022;-71
2021/09/20 03:54:40;;;;;;;30.23;19.88;;;;;;;18.81;99.43;100696.19;6308512;22;20491;-71
2021/09/20 03:57:26;;;;;;;29.83;21.33;;;;;;;18.68;99.68;100705.69;6308806;22;20018;-71
2021/09/20 04:00:12;;;;;;;33.63;20.75;;;;;;;18.75;99.51;100709.75;6307977;22;20303;-71
2021/09/20 04:02:58;;;;;;;29.13;20.63;;;;;;;18.29;100.00;100702.34;6310925;22;20082;-71
2021/09/20 04:05:44;;;;;;;27.05;20.83;;;;;;;18.23;100.00;100707.94;6309703;22;20011;-71
2021/09/20 04:40:21;;;;;;;30.77;19.13;;;;;;;17.36;100.00;100736.78;6286109;22;20058;-71
2021/09/20 04:43:08;;;;;;;28.20;18.65;;;;;;;17.30;100.00;100742.38;6310616;22;20089;-71
2021/09/20 04:45:54;;;;;;;26.50;15.77;;;;;;;16.67;100.00;100752.19;6287973;22;20065;-71
2021/09/20 06:08:45;;;;;;;29.95;17.65;;;;;;;17.37;100.00;100772.94;6261502;22;20110;31
2021/09/20 06:11:31;;;;;;;26.02;17.30;;;;;;;17.00;100.00;100772.81;6241800;22;20126;-71
2021/09/20 06:14:17;;;;;;;27.20;17.50;;;;;;;17.36;100.00;100775.66;6239886;23;20092;-71
2021/09/20 06:17:03;;;;;;;30.40;17.13;;;;;;;17.45;100.00;100768.19;6264230;22;20294;-70
2021/09/20 06:19:49;;;;;;;25.30;16.67;;;;;;;17.31;100.00;100781.16;6274047;22;20417;-71
2021/09/20 06:22:36;;;;;;;25.02;16.50;;;;;;;17.06;100.00;100777.84;6273195;22;20428;-70
2021/09/20 06:25:23;;;;;;;22.80;15.48;;;;;;;17.14;100.00;100766.94;6249845;22;20015;-70
2021/09/20 06:28:09;;;;;;;24.25;16.58;;;;;;;17.74;100.00;100761.56;6249910;22;20099;-70
2021/09/20 06:30:55;;;;;;;24.80;16.20;;;;;;;18.40;100.00;100769.03;6272408;22;20318;-69
2021/09/20 06:33:41;;;;;;;24.13;16.60;;;;;;;18.04;100.00;100760.13;6270103;22;20049;-70
2021/09/20 06:36:27;;;;;;;29.60;16.65;;;;;;;18.38;100.00;100761.16;6272173;22;20053;-70
2021/09/20 06:39:12;;;;;;;29.17;17.17;;;;;;;18.76;100.00;100746.84;6271573;22;20075;-69
2021/09/20 06:41:59;;;;;;;28.98;17.17;;;;;;;18.98;100.00;100757.25;6272875;22;20019;-70
2021/09/20 06:44:45;;;;;;;20.30;15.80;;;;;;;18.66;100.00;100758.00;6270145;22;20275;-70
2021/09/20 06:47:30;;;;;;;21.30;16.02;;;;;;;18.74;100.00;100761.13;6271035;22;20024;-70
2021/09/20 06:50:16;;;;;;;26.83;15.77;;;;;;;18.81;100.00;100757.25;6272187;22;20420;-70
2021/09/20 06:53:02;;;;;;;20.05;14.73;;;;;;;19.31;100.00;100755.53;6250737;22;20353;-70
2021/09/20 06:55:48;;;;;;;20.35;15.05;;;;;;;19.02;100.00;100761.47;6272173;22;20038;-70
2021/09/20 06:58:35;;;;;;;20.55;14.18;;;;;;;19.61;100.00;100747.72;6273956;22;20007;-70
2021/09/20 07:01:21;;;;;;;20.38;14.70;;;;;;;19.71;100.00;100749.78;6272870;22;20016;-70
2021/09/20 07:04:07;;;;;;;21.73;15.57;;;;;;;19.80;100.00;100746.63;6248126;22;20436;-70
2021/09/20 07:06:53;;;;;;;25.20;14.93;;;;;;;19.82;100.00;100741.22;6249830;22;20007;-70
2021/09/20 07:09:39;;;;;;;27.10;14.77;;;;;;;20.28;100.00;100740.41;6269392;22;20115;-70
2021/09/20 07:12:25;;;;;;;24.25;15.05;;;;;;;20.45;94.77;100743.81;6248175;22;20042;-70
2021/09/20 07:15:13;;;;;;;23.90;15.02;;;;;;;20.39;93.50;100752.19;6269968;22;20361;-71
2021/09/20 07:17:59;;;;;;;23.17;15.13;;;;;;;20.93;89.66;100748.16;6248760;22;20011;-70
2021/09/20 07:20:46;;;;;;;21.85;14.32;;;;;;;21.22;87.98;100744.59;6271322;22;20492;-71
2021/09/20 07:23:31;;;;;;;23.08;14.75;;;;;;;21.13;88.54;100756.66;6271375;22;20426;-70
2021/09/20 07:26:19;;;;;;;25.10;13.80;;;;;;;21.36;85.99;100761.44;6272284;22;20054;-70
2021/09/20 07:29:05;;;;;;;23.20;13.60;;;;;;;21.78;83.96;100755.31;6250502;22;20018;-70
2021/09/20 07:31:51;;;;;;;19.58;13.60;;;;;;;21.40;85.13;100764.78;6249152;22;20011;-71
2021/09/20 07:34:39;;;;;;;26.65;13.70;;;;;;;21.13;86.15;100758.47;6248543;22;20073;-71
2021/09/20 07:37:25;;;;;;;19.50;13.45;;;;;;;22.02;82.63;100751.94;6250751;22;20007;-72
2021/09/20 07:40:12;;;;;;;22.63;13.65;;;;;;;21.38;83.63;100748.88;6272565;22;20007;-72
2021/09/20 07:42:59;;;;;;;21.02;13.07;;;;;;;20.78;90.61;100757.84;6250465;22;20007;-72
2021/09/20 07:45:44;;;;;;;20.55;12.63;;;;;;;21.56;86.38;100746.88;6245699;22;20413;-73
2021/09/20 07:48:30;;;;;;;23.23;12.60;;;;;;;21.48;87.29;100750.03;6263945;22;20073;-72
2021/09/20 07:51:17;;;;;;;26.38;14.32;;;;;;;21.50;82.29;100753.44;6261144;22;20077;-72
2021/09/20 07:54:03;;;;;;;23.85;13.38;;;;;;;20.95;89.06;100754.22;6262699;22;20007;-73
2021/09/20 07:56:48;;;;;;;20.40;12.82;;;;;;;20.77;90.95;100745.47;6261263;22;20338;-73
2021/09/20 07:59:34;;;;;;;24.23;12.98;;;;;;;21.00;90.54;100741.47;6239597;22;20065;-74
2021/09/20 08:02:20;;;;;;;18.80;13.35;;;;;;;20.83;93.31;100737.13;6260938;22;20044;-74
2021/09/20 08:05:06;;;;;;;22.83;12.52;;;;;;;21.21;88.30;100732.19;6239295;22;20043;-75
2021/09/20 08:07:52;;;;;;;24.85;12.43;;;;;;;21.34;89.79;100718.03;6261435;22;20015;-74
2021/09/20 08:10:38;;;;;;;24.80;11.80;;;;;;;21.15;89.59;100716.59;6238006;22;20019;-74
2021/09/20 08:13:24;;;;;;;28.70;12.63;;;;;;;21.90;86.11;100722.53;6236947;22;20035;-74
2021/09/20 08:16:10;;;;;;;23.23;11.90;;;;;;;22.24;82.92;100719.38;6238957;22;20095;-74
2021/09/20 08:18:58;;;;;;;24.58;12.63;;;;;;;22.80;81.12;100728.06;6263471;22;20166;-71
2021/09/20 08:21:44;;;;;;;22.63;11.63;;;;;;;22.97;76.82;100733.09;6243101;22;20489;-72
2021/09/20 08:24:31;;;;;;;18.42;10.70;;;;;;;23.89;76.38;100728.41;6236823;22;20007;-72
2021/09/20 08:27:17;;;;;;;20.13;11.13;;;;;;;24.44;73.66;100726.97;6260437;22;20043;-72
2021/09/20 08:30:03;;;;;;;21.00;10.68;;;;;;;25.14;69.46;100719.81;6261210;22;20011;-72
2021/09/20 08:32:51;;;;;;;16.45;9.88;;;;;;;24.46;71.80;100719.66;6263119;22;20287;-73
2021/09/20 08:35:37;;;;;;;16.83;11.25;;;;;;;24.28;70.89;100714.81;6258311;22;20008;-72
2021/09/20 08:38:22;;;;;;;16.58;9.50;;;;;;;24.93;68.17;100718.78;6260864;22;20082;-72
2021/09/20 08:41:08;;;;;;;16.95;9.77;;;;;;;24.86;67.86;100706.81;6238930;22;20011;-72
2021/09/20 08:43:54;;;;;;;15.85;9.52;;;;;;;25.58;63.69;100707.34;6235731;22;20037;-72
2021/09/20 08:46:40;;;;;;;24.98;10.00;;;;;;;25.20;62.84;100696.06;6259672;22;20029;-73
2021/09/20 08:49:27;;;;;;;23.35;10.55;;;;;;;24.27;66.65;100705.91;6240136;22;20015;-72
2021/09/20 08:52:13;;;;;;;17.13;9.68;;;;;;;25.32;63.65;100716.59;6260874;22;20465;-72
2021/09/20 08:54:59;;;;;;;19.02;9.05;;;;;;;25.42;63.46;100722.09;6237533;22;20023;-72
2021/09/20 08:57:45;;;;;;;13.88;9.05;;;;;;;25.50;64.96;100719.66;6257950;22;20077;-73
2021/09/20 09:00:31;;;;;;;16.52;9.27;;;;;;;25.80;62.88;100712.69;6238865;22;20014;-73
2021/09/20 09:03:21;;;;;;;15.45;8.75;;;;;;;25.96;63.04;100715.88;6237923;22;20011;-72
2021/09/20 09:06:08;;;;;;;12.45;8.40;;;;;;;25.98;63.26;100696.97;6260526;22;20012;-72
2021/09/20 09:08:53;;;;;;;17.85;7.93;;;;;;;25.75;63.68;100690.75;6259737;22;20386;-71
2021/09/20 09:11:42;;;;;;;17.45;7.88;;;;;;;25.87;64.20;100697.81;6238924;22;20015;-73
2021/09/20 09:14:37;;;;;;;15.98;7.55;;;;;;;25.36;66.23;100691.22;6257891;22;20012;-72
2021/09/20 09:17:41;;;;;;;9.27;6.68;;;;;;;26.20;63.67;100680.81;6260304;22;20217;-72
2021/09/20 09:20:30;;;;;;;15.45;7.43;;;;;;;26.04;63.08;100672.31;6238844;22;20473;-72
2021/09/20 09:24:07;;;;;;;15.27;7.70;;;;;;;26.32;62.29;100664.53;6240817;22;20436;-74
2021/09/20 09:26:59;;;;;;;12.77;7.00;;;;;;;25.67;64.24;100662.81;6238409;22;20058;-73
2021/09/20 09:29:46;;;;;;;19.27;7.97;;;;;;;26.12;62.22;100678.75;6262145;22;20024;-73
2021/09/20 09:32:33;;;;;;;13.95;7.03;;;;;;;26.25;62.44;100681.28;6262243;22;20008;-73
2021/09/20 09:35:19;;;;;;;11.38;6.75;;;;;;;25.81;65.07;100671.47;6259344;22;20059;-73
2021/09/20 09:38:07;;;;;;;13.60;6.30;;;;;;;26.05;65.10;100674.88;6261916;22;20014;-72
2021/09/20 09:40:59;;;;;;;16.42;6.72;;;;;;;26.06;64.11;100673.03;6260781;22;20008;-73
2021/09/20 09:43:46;;;;;;;9.38;6.75;;;;;;;24.17;70.96;100663.88;6258827;22;20011;-71
2021/09/20 09:46:37;;;;;;;16.33;6.13;;;;;;;24.63;70.15;100664.88;6259288;22;20011;-71
2021/09/20 09:49:25;;;;;;;16.35;7.22;;;;;;;25.12;67.55;100649.38;6260426;22;20051;-71
2021/09/20 09:52:12;;;;;;;12.65;6.75;;;;;;;25.61;66.16;100655.25;6258447;22;20452;-70
2021/09/20 09:55:02;;;;;;;11.57;6.03;;;;;;;26.00;64.04;100660.13;6258891;22;20035;-71
2021/09/20 09:57:49;;;;;;;11.38;6.20;;;;;;;25.84;65.21;100646.22;6239088;22;20479;-71
2021/09/20 10:00:36;;;;;;;19.73;9.95;;;;;;;26.30;63.70;100650.38;6237289;22;20007;-71
2021/09/20 10:03:22;;;;;;;17.05;8.50;;;;;;;26.52;60.42;100644.06;6237761;22;20039;-71
2021/09/20 10:06:08;;;;;;;17.13;6.28;;;;;;;26.26;61.54;100638.19;6238417;22;20110;-70
2021/09/20 10:08:54;;;;;;;9.82;5.93;;;;;;;26.16;60.43;100628.34;6237624;22;20019;-71
2021/09/20 10:11:42;;;;;;;12.40;6.18;;;;;;;26.49;60.02;100631.72;6259654;22;20019;-71
2021/09/20 10:14:28;;;;;;;8.18;5.90;;;;;;;26.31;58.09;100629.72;6238912;22;20043;-70
2021/09/20 10:17:18;;;;;;;11.52;7.13;;;;;;;26.66;57.93;100630.31;6259626;22;20039;-71
2021/09/20 10:20:12;;;;;;;9.63;5.97;;;;;;;26.77;57.00;100623.03;6240168;22;20042;-69
2021/09/20 10:23:10;;;;;;;11.18;5.60;;;;;;;26.01;57.42;100619.72;6242149;22;20073;-71
2021/09/20 10:25:56;;;;;;;6.50;5.10;;;;;;;25.58;58.57;100600.00;6255672;22;20090;-71
2021/09/20 10:28:42;;;;;;;10.35;5.72;;;;;;;25.67;57.75;100595.69;6255949;22;20072;-71
2021/09/20 10:31:29;;;;;;;8.68;5.05;;;;;;;26.28;57.29;100595.06;6236450;22;20011;-70
2021/09/20 10:34:18;;;;;;;9.43;4.93;;;;;;;26.65;57.28;100597.19;6254323;22;20458;-71
2021/09/20 10:37:15;;;;;;;9.00;4.15;;;;;;;26.95;57.31;100591.88;6236290;22;20726;-70
2021/09/20 10:40:09;;;;;;;10.60;4.82;;;;;;;27.01;56.55;100590.50;6256907;22;20011;-71
2021/09/20 10:43:03;;;;;;;12.75;4.07;;;;;;;26.63;53.47;100584.88;6236923;22;20015;-70
2021/09/20 10:45:52;;;;;;;9.68;4.13;;;;;;;27.02;53.20;100578.75;6218525;22;20011;-71
2021/09/20 10:48:41;;;;;;;7.95;4.07;;;;;;;26.22;53.39;100582.16;6257290;22;20473;-71
2021/09/20 10:51:40;;;;;;;8.65;3.70;;;;;;;26.90;53.65;100571.75;6260557;22;20086;-71
2021/09/20 10:54:26;;;;;;;9.55;3.50;;;;;;;27.75;50.58;100568.53;6257280;22;20007;-70
2021/09/20 10:57:17;;;;;;;6.20;3.30;;;;;;;27.73;49.60;100566.97;6236760;22;20161;-71
2021/09/20 11:00:23;;;;;;;10.65;3.22;;;;;;;27.73;49.30;100554.38;6263254;22;20018;-70
2021/09/20 11:03:50;;;;;;;3.90;3.08;;;;;;;27.70;48.21;100540.31;6259276;22;20014;-71
2021/09/20 11:07:04;;;;;;;4.45;2.67;;;;;;;28.26;46.91;100531.44;6260342;22;20031;-69
2021/09/20 11:10:07;;;;;;;4.95;2.60;;;;;;;28.13;45.94;100522.81;6261115;22;20030;-69
2021/09/20 11:13:17;;;;;;;4.07;2.70;;;;;;;28.41;44.84;100515.69;6259197;22;20008;-70
2021/09/20 11:16:09;;;;;;;6.72;2.60;;;;;;;28.99;43.86;100506.44;6270736;22;20027;-71
2021/09/20 11:19:04;;;;;;;5.60;2.97;;;;;;;28.72;42.54;100509.13;6269065;22;20007;-69
2021/09/20 11:24:55;;;;;;;4.63;2.88;;;;;;;29.07;41.84;100510.13;6288532;22;20372;-71
2021/09/20 11:27:47;;;;;;;6.13;2.22;;;;;;;28.61;40.33;100501.19;6260688;22;20436;-71
2021/09/20 11:30:35;;;;;;;3.17;2.20;;;;;;;28.25;41.12;100493.88;6238134;22;20012;-71
2021/09/20 11:33:40;;;;;;;2.90;2.10;;;;;;;29.03;40.03;100494.38;6260449;22;20034;-71
2021/09/20 11:36:33;;;;;;;5.97;2.50;;;;;;;29.18;38.57;100485.66;6240331;22;20490;-69
2021/09/20 11:39:46;;;;;;;4.47;1.80;;;;;;;29.07;37.83;100479.59;6269106;22;20007;-69
2021/09/20 11:42:38;;;;;;;3.22;2.20;;;;;;;29.33;38.68;100483.28;6268163;22;20302;-69
2021/09/20 11:45:25;;;;;;;3.88;2.20;;;;;;;28.96;38.34;100475.22;6271343;22;20411;-70
2021/09/20 11:48:19;;;;;;;4.55;2.20;;;;;;;28.02;40.09;100465.53;6301130;22;20073;-69
2021/09/20 11:51:04;;;;;;;4.57;2.28;;;;;;;27.82;41.03;100469.22;6300056;22;20094;-70
2021/09/20 11:53:50;;;;;;;5.30;2.50;;;;;;;28.71;40.72;100458.84;6297165;22;20007;-70
2021/09/20 11:56:36;;;;;;;4.72;2.13;;;;;;;29.14;40.34;100459.97;6297953;22;20027;-70
2021/09/20 11:59:33;;;;;;;2.78;2.15;;;;;;;29.11;40.51;100456.69;6296455;22;20421;-70
2021/09/20 12:02:39;;;;;;;4.47;2.53;;;;;;;28.76;41.65;100451.19;6298721;22;20656;-71
2021/09/20 12:05:30;;;;;;;4.47;2.50;;;;;;;29.54;39.89;100449.56;6296233;22;20015;-70
2021/09/20 12:08:21;;;;;;;12.65;3.70;;;;;;;28.89;40.88;100457.09;6298702;22;20113;-70
2021/09/20 12:11:07;;;;;;;6.13;3.38;;;;;;;28.83;40.99;100452.28;6298744;22;20011;-70
2021/09/20 12:13:53;;;;;;;4.75;3.10;;;;;;;29.07;40.04;100452.59;6296086;22;20370;-70
2021/09/20 12:16:39;;;;;;;3.92;3.10;;;;;;;29.48;40.14;100457.44;6301875;22;20035;-70
2021/09/20 12:19:27;;;;;;;19.85;12.60;;;;;;;29.36;40.65;100451.44;6300275;22;20069;-70
2021/09/20 12:22:16;;;;;;;6.75;4.75;;;;;;;29.00;40.44;100446.97;6299360;22;20007;-71
2021/09/20 12:25:25;;;;;;;7.55;4.80;;;;;;;29.18;40.11;100441.63;6299256;22;20289;-70
2021/09/20 12:28:23;;;;;;;6.72;3.40;;;;;;;28.76;40.24;100441.22;6301042;22;20306;-70
2021/09/20 12:31:15;;;;;;;7.90;4.65;;;;;;;29.08;40.09;100446.19;6299506;22;20227;-71
2021/09/20 12:34:07;;;;;;;5.70;4.30;;;;;;;29.84;39.82;100448.38;6298259;22;20390;-71
2021/09/20 12:36:57;;;;;;;9.45;4.05;;;;;;;29.06;39.55;100448.22;6297338;22;20082;-70
2021/09/20 12:39:46;;;;;;;6.32;3.58;;;;;;;29.74;39.26;100439.53;6275374;22;20321;-70
2021/09/20 12:42:32;;;;;;;6.65;3.90;;;;;;;29.31;39.72;100434.84;6297703;22;20003;-70
2021/09/20 12:45:21;;;;;;;5.82;3.20;;;;;;;29.68;39.07;100427.47;6274462;22;20022;-70
2021/09/20 12:48:07;;;;;;;4.97;3.15;;;;;;;29.48;38.73;100422.34;6299108;22;20014;-70
2021/09/20 12:50:59;;;;;;;8.32;3.58;;;;;;;29.27;39.31;100432.59;6299291;22;20070;-70
2021/09/20 12:53:57;;;;;;;6.50;3.30;;;;;;;29.29;39.40;100423.34;6298235;22;20295;-70
2021/09/20 12:56:43;;;;;;;7.30;3.60;;;;;;;29.45;39.03;100420.81;6276042;22;20007;-71
2021/09/20 12:59:36;;;;;;;6.45;3.80;;;;;;;29.07;39.18;100415.69;6296046;22;20003;-69
2021/09/20 13:02:22;;;;;;;11.48;3.88;;;;;;;29.35;39.73;100408.38;6297282;22;20113;-71
2021/09/20 13:05:12;;;;;;;8.43;3.80;;;;;;;29.45;39.46;100411.88;6296185;22;20442;-71
2021/09/20 13:08:05;;;;;;;6.10;3.60;;;;;;;29.40;39.16;100406.94;6297905;22;20309;-71
2021/09/20 13:10:51;;;;;;;5.95;3.72;;;;;;;29.32;39.63;100406.84;6298846;22;20110;-71
2021/09/20 13:13:38;;;;;;;8.25;3.95;;;;;;;30.05;38.42;100406.50;6297483;22;20007;-70
2021/09/20 13:16:38;;;;;;;6.50;4.32;;;;;;;29.67;39.28;100417.69;6299077;22;20369;-71
2021/09/20 13:19:23;;;;;;;6.55;4.28;;;;;;;29.17;40.12;100423.72;6275845;22;20017;-71
2021/09/20 13:22:09;;;;;;;12.55;5.20;;;;;;;28.56;40.40;100425.31;6296133;22;20011;-71
2021/09/20 13:24:56;;;;;;;7.10;5.53;;;;;;;28.97;40.29;100422.94;6274023;22;20069;-72
2021/09/20 13:27:41;;;;;;;10.57;7.05;;;;;;;28.84;41.46;100429.69;6296843;22;20011;-71
2021/09/20 13:30:28;;;;;;;13.52;6.43;;;;;;;28.82;41.39;100426.31;6298846;22;20038;-71
2021/09/20 13:33:17;;;;;;;9.25;6.03;;;;;;;28.93;41.37;100418.84;6298472;22;20313;-70
2021/09/20 13:36:11;;;;;;;10.73;6.20;;;;;;;28.47;42.10;100408.16;6226580;22;1151276;-70
2021/09/20 13:38:58;;;;;;;9.38;6.28;;;;;;;28.65;41.58;100419.84;6299442;22;20430;-71
2021/09/20 13:41:43;;;;;;;8.45;5.95;;;;;;;28.63;41.82;100418.28;6277788;22;20011;-70
2021/09/20 13:44:29;;;;;;;14.50;6.45;;;;;;;27.66;43.33;100409.66;6297529;22;20356;-71
2021/09/20 13:47:15;;;;;;;13.23;6.65;;;;;;;27.89;42.93;100411.13;6300342;22;20090;-70
2021/09/20 13:50:02;;;;;;;17.13;6.60;;;;;;;28.48;42.24;100407.16;6299996;22;20011;-70
2021/09/20 13:52:48;;;;;;;9.18;6.78;;;;;;;27.92;43.34;100397.38;6299753;22;20520;-71
2021/09/20 13:55:37;;;;;;;13.13;6.63;;;;;;;27.76;43.68;100395.22;6296928;22;20074;-70
2021/09/20 13:58:23;;;;;;;11.15;6.82;;;;;;;27.52;43.45;100393.97;6301020;22;20037;-71
2021/09/20 14:01:08;;;;;;;16.67;9.68;;;;;;;28.10;43.19;100399.16;6296532;22;19999;-71
2021/09/20 14:03:55;;;;;;;13.45;7.85;;;;;;;28.09;43.18;100394.78;6298370;22;20007;-70
2021/09/20 14:06:41;;;;;;;13.98;6.72;;;;;;;27.54;44.23;100392.81;6300114;22;20476;-70
2021/09/20 14:09:27;;;;;;;9.02;6.00;;;;;;;27.23;44.81;100386.72;6298623;22;20086;-70
2021/09/20 14:12:16;;;;;;;14.90;5.80;;;;;;;27.12;46.13;100388.66;6300579;22;20006;-71
2021/09/20 14:15:03;;;;;;;9.75;5.47;;;;;;;27.61;45.39;100390.41;6275294;22;20338;-71
2021/09/20 14:17:49;;;;;;;12.38;5.72;;;;;;;27.51;46.65;100382.34;6297257;22;20081;-71
2021/09/20 14:20:35;;;;;;;7.18;5.13;;;;;;;27.95;46.14;100379.06;6296754;22;20003;-70
2021/09/20 14:23:21;;;;;;;8.60;5.13;;;;;;;27.62;46.89;100382.19;6297180;22;20422;-70
2021/09/20 14:26:07;;;;;;;13.90;4.72;;;;;;;27.05;47.25;100385.66;6298467;22;20086;-71
2021/09/20 14:28:53;;;;;;;17.10;4.05;;;;;;;27.17;47.28;100399.84;6298528;22;20014;-70
2021/09/20 14:31:40;;;;;;;17.23;3.90;;;;;;;27.04;47.97;100396.56;6297566;22;20011;-72
2021/09/20 14:34:27;;;;;;;12.25;3.88;;;;;;;27.03;48.70;100403.78;6297274;22;20007;-72
2021/09/20 14:37:14;;;;;;;9.52;3.80;;;;;;;27.11;48.90;100421.91;6297546;22;20077;-69
2021/09/20 14:39:59;;;;;;;16.83;4.55;;;;;;;26.19;50.54;100426.59;6297911;22;20473;-70
2021/09/20 14:42:47;;;;;;;21.48;4.63;;;;;;;25.96;51.05;100431.28;6297333;22;20109;-70
2021/09/20 14:45:33;;;;;;;18.10;4.60;;;;;;;25.85;51.21;100462.69;6275328;22;20305;-70
2021/09/20 14:48:19;;;;;;;13.82;4.60;;;;;;;25.42;52.71;100477.94;6298862;22;20018;-70
2021/09/20 14:51:06;;;;;;;18.95;5.68;;;;;;;25.40;53.55;100496.84;6298114;22;20038;-70
2021/09/20 14:53:51;;;;;;;27.00;5.80;;;;;;;24.95;55.89;100510.44;6298683;22;20003;-70
2021/09/20 14:56:37;;;;;;;23.05;7.30;;;;;;;24.47;59.25;100528.50;6297335;22;20011;-70
2021/09/20 14:59:23;;;;;;;27.80;6.80;;;;;;;24.35;61.85;100558.91;6299048;22;20003;-71
2021/09/20 15:02:09;;;;;;;31.67;8.68;;;;;;;24.11;64.05;100602.78;6298129;22;20019;-70
2021/09/20 15:04:54;;;;;;;25.35;7.13;;;;;;;24.16;64.43;100617.53;6296299;22;20042;-71
2021/09/20 15:07:43;;;;;;;35.45;5.85;;;;;;;23.58;69.06;100643.28;6299961;22;20015;-70
2021/09/20 15:57:45;;;;;;;16.90;4.97;;;;;;;20.65;100.00;100814.59;6324272;22;20026;-71
2021/09/20 16:00:31;;;;;;;12.63;5.80;;;;;;;20.56;100.00;100826.59;6339070;22;20268;-70
2021/09/20 16:03:17;;;;;;;10.02;4.97;;;;;;;20.75;100.00;100816.63;6336925;22;20021;-72
2021/09/20 16:06:03;;;;;;;12.05;5.60;;;;;;;20.70;100.00;100833.81;6324423;22;20003;-71
2021/09/20 16:08:52;;;;;;;11.07;5.60;;;;;;;20.36;100.00;100812.69;6291689;22;20018;-71
2021/09/20 16:11:40;;;;;;;12.45;6.22;;;;;;;19.59;100.00;100813.38;6304247;22;20076;-72
2021/09/20 16:14:25;;;;;;;13.73;6.97;;;;;;;19.51;100.00;100828.88;6306635;22;20413;-72
2021/09/20 16:17:11;;;;;;;14.45;7.22;;;;;;;19.74;100.00;100825.88;6307612;22;20017;-71
2021/09/20 16:19:57;;;;;;;13.20;7.47;;;;;;;19.55;100.00;100814.47;6305891;22;20038;-71
2021/09/20 16:22:43;;;;;;;10.65;6.70;;;;;;;18.95;100.00;100811.38;6305830;22;20305;-71
2021/09/20 16:25:29;;;;;;;13.32;6.97;;;;;;;18.63;100.00;100798.81;6305954;22;20011;-70
2021/09/20 16:28:15;;;;;;;13.75;8.45;;;;;;;18.84;100.00;100818.13;6305096;22;20007;-71
2021/09/20 16:31:04;;;;;;;14.05;8.07;;;;;;;18.56;100.00;100837.22;6305892;22;20007;-70
2021/09/20 16:33:50;;;;;;;11.20;7.45;;;;;;;18.98;100.00;100836.91;6305675;22;20390;-70
2021/09/20 22:01:53;;;;;;;20.23;14.88;;;;;;;17.81;100.00;101201.22;6278793;22;20030;-70
2021/09/20 22:04:39;;;;;;;21.10;14.93;;;;;;;17.92;100.00;101201.66;6340226;22;20107;-70
2021/09/20 22:07:25;;;;;;;18.13;14.15;;;;;;;17.88;100.00;101204.53;6317516;22;20003;-70
2021/09/20 22:10:11;;;;;;;21.33;15.18;;;;;;;17.75;100.00;101214.72;6314484;22;20002;-70
2021/09/20 22:13:00;;;;;;;18.42;13.82;;;;;;;17.77;100.00;101212.03;6340347;22;20007;-71
2021/09/20 22:15:49;;;;;;;19.83;13.73;;;;;;;17.67;100.00;101219.47;6315753;22;20002;-71
2021/09/20 22:18:35;;;;;;;15.90;11.95;;;;;;;17.58;100.00;101225.13;6339478;22;20077;-70
2021/09/20 22:21:21;;;;;;;13.75;10.40;;;;;;;17.20;100.00;101228.28;6339995;22;20002;-70
2021/09/20 23:15:56;;;;;;;12.80;9.48;;;;;;;17.15;100.00;101248.78;6300810;22;20094;-70
2021/09/20 23:18:42;;;;;;;9.90;8.27;;;;;;;17.02;100.00;101251.91;6305954;22;20011;-71
2021/09/20 23:21:28;;;;;;;10.80;8.05;;;;;;;17.20;100.00;101251.28;6304635;22;19999;-71
2021/09/20 23:24:13;;;;;;;9.02;7.15;;;;;;;17.20;100.00;101256.56;6308384;22;20318;-71
2021/09/20 23:26:59;;;;;;;7.88;6.85;;;;;;;16.92;100.00;101254.00;6307325;22;20069;-71
